createdAt,value
2022-12-11T00:01:15.919Z,38.22
2022-12-11T00:03:42.738Z,49.90
2022-12-11T00:06:11.818Z,44.87
2022-12-11T00:08:39.144Z,42.60
2022-12-11T00:11:08.876Z,43.50
2022-12-11T00:13:35.644Z,46.70
2022-12-11T00:16:02.080Z,37.95
2022-12-11T00:18:28.483Z,37.57
2022-12-11T00:20:55.072Z,42.60
2022-12-11T00:23:21.624Z,43.33
2022-12-11T00:25:48.201Z,50.97
2022-12-11T00:28:16.847Z,43.13
2022-12-11T00:30:43.380Z,47.03
2022-12-11T00:33:10.750Z,58.47
2022-12-11T00:35:41.843Z,43.92
2022-12-11T00:38:08.711Z,44.38
2022-12-11T00:40:36.824Z,46.65
2022-12-11T00:43:03.996Z,45.83
2022-12-11T00:45:30.548Z,45.70
2022-12-11T00:47:58.109Z,40.15
2022-12-11T00:50:24.667Z,39.38
2022-12-11T00:52:51.169Z,51.05
2022-12-11T00:55:18.348Z,40.17
2022-12-11T00:57:44.739Z,47.83
2022-12-11T01:00:12.650Z,34.33
2022-12-11T01:02:39.207Z,38.28
2022-12-11T01:05:06.233Z,43.90
2022-12-11T01:07:32.611Z,45.23
2022-12-11T01:10:17.715Z,43.05
2022-12-11T01:12:44.129Z,43.42
2022-12-11T01:15:12.251Z,43.83
2022-12-11T01:17:38.971Z,49.72
2022-12-11T01:20:05.816Z,51.53
2022-12-11T01:22:32.343Z,50.85
2022-12-11T01:24:59.227Z,45.38
2022-12-11T01:27:25.975Z,58.42
2022-12-11T01:29:52.546Z,49.95
2022-12-11T01:32:19.047Z,66.00
2022-12-11T01:34:45.778Z,43.35
2022-12-11T01:37:12.216Z,48.88
2022-12-11T01:39:38.849Z,50.78
2022-12-11T01:42:10.227Z,62.65
2022-12-11T01:44:37.328Z,52.43
2022-12-11T01:47:03.788Z,52.00
2022-12-11T01:49:30.301Z,46.63
2022-12-11T01:52:03.295Z,53.00
2022-12-11T01:54:30.519Z,53.80
2022-12-11T01:57:00.670Z,46.03
2022-12-11T01:59:30.993Z,49.38
2022-12-11T02:02:03.361Z,45.50
2022-12-11T02:04:30.864Z,50.38
2022-12-11T02:06:57.461Z,44.70
2022-12-11T02:09:27.106Z,56.17
2022-12-11T02:12:03.164Z,48.95
2022-12-11T02:14:29.583Z,43.13
2022-12-11T02:17:03.842Z,46.97
2022-12-11T02:19:53.022Z,43.10
2022-12-11T02:22:55.304Z,44.97
2022-12-11T02:25:38.064Z,45.55
2022-12-11T02:28:24.028Z,41.38
2022-12-11T02:30:57.096Z,42.42
2022-12-11T02:33:38.987Z,44.50
2022-12-11T02:36:08.034Z,46.97
2022-12-11T02:38:39.156Z,46.42
2022-12-11T02:41:08.555Z,50.30
2022-12-11T02:43:37.574Z,48.97
2022-12-11T02:46:07.484Z,51.38
2022-12-11T02:48:36.345Z,48.00
2022-12-11T02:51:05.754Z,46.35
2022-12-11T02:53:37.545Z,45.05
2022-12-11T02:56:21.046Z,49.15
2022-12-11T02:58:58.651Z,44.30
2022-12-11T03:01:26.793Z,40.83
2022-12-11T03:03:55.475Z,44.33
2022-12-11T03:06:26.365Z,42.55
2022-12-11T03:08:52.907Z,36.20
2022-12-11T03:11:19.308Z,31.17
2022-12-11T03:13:45.842Z,43.47
2022-12-11T03:16:31.238Z,38.38
2022-12-11T03:19:00.654Z,36.83
2022-12-11T03:21:36.024Z,41.95
2022-12-11T03:24:09.052Z,40.22
2022-12-11T03:26:54.507Z,40.67
2022-12-11T03:29:37.775Z,37.03
2022-12-11T03:32:15.374Z,39.22
2022-12-11T03:34:48.491Z,40.75
2022-12-11T03:37:16.818Z,35.70
2022-12-11T03:39:49.242Z,40.83
2022-12-11T03:42:19.143Z,37.08
2022-12-11T03:44:49.534Z,38.83
2022-12-11T03:47:20.572Z,49.03
2022-12-11T03:49:48.683Z,38.13
2022-12-11T03:52:17.185Z,36.03
2022-12-11T03:54:47.484Z,38.58
2022-12-11T03:57:18.011Z,38.70
2022-12-11T03:59:44.657Z,37.92
2022-12-11T04:02:11.184Z,38.60
2022-12-11T04:04:39.079Z,36.80
2022-12-11T04:07:05.711Z,34.03
2022-12-11T04:09:32.409Z,32.83
2022-12-11T04:11:58.831Z,40.40
2022-12-11T04:14:43.801Z,31.60
2022-12-11T04:17:10.318Z,32.00
2022-12-11T04:19:55.269Z,33.60
2022-12-11T04:22:40.615Z,33.38
2022-12-11T04:25:08.406Z,29.40
2022-12-11T04:27:50.106Z,29.38
2022-12-11T04:30:29.313Z,30.40
2022-12-11T04:32:58.983Z,32.63
2022-12-11T04:35:25.415Z,29.02
2022-12-11T04:37:53.047Z,26.40
2022-12-11T04:40:20.312Z,24.42
2022-12-11T04:42:46.968Z,26.33
2022-12-11T04:45:13.772Z,26.92
2022-12-11T04:47:41.501Z,30.60
2022-12-11T04:50:10.487Z,29.55
2022-12-11T04:52:36.988Z,27.20
2022-12-11T04:55:08.164Z,23.70
2022-12-11T04:57:35.168Z,26.58
2022-12-11T05:00:02.237Z,23.23
2022-12-11T05:02:28.751Z,23.02
2022-12-11T05:04:55.208Z,22.80
2022-12-11T05:07:21.639Z,22.13
2022-12-11T05:09:48.110Z,24.33
2022-12-11T05:12:14.645Z,24.13
2022-12-11T05:14:41.083Z,28.25
2022-12-11T05:17:07.470Z,22.73
2022-12-11T05:19:33.911Z,26.90
2022-12-11T05:22:00.278Z,22.67
2022-12-11T05:24:26.740Z,23.08
2022-12-11T05:26:53.152Z,23.90
2022-12-11T05:29:19.590Z,25.33
2022-12-11T05:31:46.139Z,21.57
2022-12-11T05:34:12.724Z,23.80
2022-12-11T05:36:39.330Z,24.40
2022-12-11T05:39:05.779Z,23.83
2022-12-11T05:41:32.836Z,26.23
2022-12-11T05:43:59.574Z,21.70
2022-12-11T05:46:28.673Z,25.00
2022-12-11T05:48:59.961Z,24.15
2022-12-11T05:51:28.792Z,23.92
2022-12-11T05:53:57.034Z,22.75
2022-12-11T05:56:28.536Z,25.07
2022-12-11T05:58:55.855Z,24.95
2022-12-11T06:01:26.247Z,24.95
2022-12-11T06:03:54.136Z,22.55
2022-12-11T06:06:21.269Z,24.42
2022-12-11T06:08:51.128Z,23.73
2022-12-11T06:11:22.424Z,22.70
2022-12-11T06:13:50.765Z,22.48
2022-12-11T06:16:17.335Z,23.67
2022-12-11T06:18:45.091Z,21.80
2022-12-11T06:21:30.698Z,28.13
2022-12-11T06:23:59.303Z,24.08
2022-12-11T06:26:26.696Z,22.70
2022-12-11T06:28:53.262Z,23.25
2022-12-11T06:31:20.956Z,23.75
2022-12-11T06:33:47.824Z,24.00
2022-12-11T06:36:17.315Z,26.73
2022-12-11T06:38:44.251Z,27.83
2022-12-11T06:41:11.466Z,25.50
2022-12-11T06:43:40.158Z,27.75
2022-12-11T06:46:14.928Z,26.00
2022-12-11T06:48:42.506Z,26.77
2022-12-11T06:51:12.346Z,26.02
2022-12-11T06:53:39.061Z,23.33
2022-12-11T06:56:08.223Z,32.08
2022-12-11T06:58:36.203Z,31.17
2022-12-11T07:01:04.611Z,27.95
2022-12-11T07:03:31.173Z,27.27
2022-12-11T07:06:04.632Z,33.55
2022-12-11T07:08:31.981Z,28.02
2022-12-11T07:11:10.392Z,29.80
2022-12-11T07:13:37.235Z,30.75
2022-12-11T07:16:05.732Z,30.40
2022-12-11T07:18:32.710Z,32.45
2022-12-11T07:21:02.605Z,29.08
2022-12-11T07:23:29.391Z,26.50
2022-12-11T07:25:56.400Z,34.63
2022-12-11T07:28:23.081Z,32.45
2022-12-11T07:30:49.712Z,30.23
2022-12-11T07:33:16.133Z,32.92
2022-12-11T07:35:43.626Z,34.97
2022-12-11T07:38:10.090Z,33.00
2022-12-11T07:40:36.857Z,30.02
2022-12-11T07:43:03.596Z,27.98
2022-12-11T07:45:30.146Z,27.80
2022-12-11T07:47:56.635Z,29.30
2022-12-11T07:50:23.180Z,28.83
2022-12-11T07:52:49.696Z,27.30
2022-12-11T07:55:16.232Z,29.90
2022-12-11T07:57:42.656Z,25.70
2022-12-11T08:00:10.621Z,29.17
2022-12-11T08:02:37.741Z,31.25
2022-12-11T08:05:05.148Z,26.65
2022-12-11T08:07:34.608Z,31.27
2022-12-11T08:10:01.194Z,26.23
2022-12-11T08:12:27.572Z,31.77
2022-12-11T08:14:54.203Z,30.25
2022-12-11T08:17:24.502Z,31.05
2022-12-11T08:19:53.876Z,28.35
2022-12-11T08:22:20.319Z,28.88
2022-12-11T08:24:47.241Z,29.67
2022-12-11T08:27:13.760Z,30.52
2022-12-11T08:29:40.477Z,29.58
2022-12-11T08:32:12.104Z,29.52
2022-12-11T08:34:39.004Z,27.70
2022-12-11T08:37:05.462Z,31.20
2022-12-11T08:39:32.081Z,31.48
2022-12-11T08:41:58.866Z,30.38
2022-12-11T08:44:26.827Z,27.40
2022-12-11T08:46:53.235Z,27.58
2022-12-11T08:49:19.690Z,31.37
2022-12-11T08:51:46.085Z,27.15
2022-12-11T08:54:12.576Z,23.95
2022-12-11T08:56:39.348Z,26.15
2022-12-11T08:59:06.307Z,22.38
2022-12-11T09:01:35.150Z,25.97
2022-12-11T09:04:01.762Z,21.90
2022-12-11T09:06:30.366Z,24.70
2022-12-11T09:08:59.644Z,24.17
2022-12-11T09:11:29.222Z,25.45
2022-12-11T09:13:56.003Z,26.23
2022-12-11T09:16:24.984Z,24.52
2022-12-11T09:18:53.553Z,24.30
2022-12-11T09:21:22.951Z,21.70
2022-12-11T09:23:53.325Z,26.23
2022-12-11T09:26:20.138Z,25.73
2022-12-11T09:28:47.430Z,23.15
2022-12-11T09:31:14.119Z,22.20
2022-12-11T09:33:41.004Z,25.52
2022-12-11T09:36:08.264Z,25.60
2022-12-11T09:38:36.627Z,26.23
2022-12-11T09:41:35.544Z,26.42
2022-12-11T09:44:15.204Z,22.40
2022-12-11T09:46:42.460Z,25.52
2022-12-11T09:49:22.779Z,25.50
2022-12-11T09:52:00.310Z,24.10
2022-12-11T09:54:27.111Z,23.42
2022-12-11T09:57:09.086Z,22.65
2022-12-11T10:00:04.489Z,25.70
2022-12-11T10:03:06.915Z,26.60
2022-12-11T10:05:44.356Z,21.10
2022-12-11T10:08:30.808Z,24.00
2022-12-11T10:11:28.051Z,22.42
2022-12-11T10:14:37.631Z,22.58
2022-12-11T10:17:12.355Z,24.85
2022-12-11T10:19:41.412Z,26.17
2022-12-11T10:22:18.946Z,26.05
2022-12-11T10:25:12.609Z,25.27
2022-12-11T10:27:40.599Z,22.90
2022-12-11T10:30:13.084Z,22.48
2022-12-11T10:32:59.969Z,23.13
2022-12-11T10:35:29.094Z,22.23
2022-12-11T10:38:01.502Z,24.45
2022-12-11T10:40:29.322Z,23.40
2022-12-11T10:42:56.095Z,24.60
2022-12-11T10:45:22.519Z,24.57
2022-12-11T10:47:49.100Z,19.98
2022-12-11T10:50:25.153Z,21.58
2022-12-11T10:52:52.662Z,22.33
2022-12-11T10:55:24.502Z,20.80
2022-12-11T10:58:00.963Z,19.50
2022-12-11T11:00:39.191Z,19.73
2022-12-11T11:03:18.924Z,20.75
2022-12-11T11:05:49.402Z,19.38
2022-12-11T11:08:20.064Z,21.10
2022-12-11T11:10:55.075Z,22.00
2022-12-11T11:13:24.357Z,22.55
2022-12-11T11:16:00.546Z,18.83
2022-12-11T11:18:29.414Z,18.90
2022-12-11T11:20:56.209Z,18.95
2022-12-11T11:23:24.661Z,19.37
2022-12-11T11:25:57.566Z,19.88
2022-12-11T11:28:30.807Z,20.85
2022-12-11T11:31:02.339Z,17.10
2022-12-11T11:33:30.831Z,19.95
2022-12-11T11:36:08.149Z,20.00
2022-12-11T11:38:44.627Z,21.55
2022-12-11T11:41:25.820Z,19.90
2022-12-11T11:43:57.699Z,19.10
2022-12-11T11:46:35.103Z,20.67
2022-12-11T11:49:11.922Z,20.17
2022-12-11T11:52:12.340Z,22.98
2022-12-11T11:54:41.724Z,18.13
2022-12-11T11:57:37.504Z,16.77
2022-12-11T12:00:20.674Z,19.33
2022-12-11T12:02:51.158Z,21.83
2022-12-11T12:05:25.812Z,16.02
2022-12-11T12:08:11.541Z,18.17
2022-12-11T12:10:55.777Z,17.90
2022-12-11T12:13:51.453Z,17.08
2022-12-11T12:16:52.372Z,18.00
2022-12-11T12:19:47.783Z,18.52
2022-12-11T12:22:28.023Z,18.55
2022-12-11T12:25:22.338Z,18.23
2022-12-11T12:28:12.298Z,14.70
2022-12-11T12:30:50.927Z,18.67
2022-12-11T12:33:20.270Z,19.10
2022-12-11T12:36:07.074Z,23.15
2022-12-11T12:38:49.591Z,18.92
2022-12-11T12:41:24.859Z,19.17
2022-12-11T12:44:14.708Z,17.03
2022-12-11T12:47:00.609Z,16.38
2022-12-11T12:49:40.806Z,19.40
2022-12-11T12:52:32.317Z,23.20
2022-12-11T12:55:13.931Z,18.90
2022-12-11T12:57:54.975Z,20.30
2022-12-11T13:00:39.023Z,19.85
2022-12-11T13:03:18.397Z,19.55
2022-12-11T13:05:59.152Z,18.15
2022-12-11T13:08:28.735Z,23.05
2022-12-11T13:11:32.784Z,20.57
2022-12-11T13:14:06.636Z,19.55
2022-12-11T13:16:41.684Z,21.08
2022-12-11T13:19:23.288Z,22.10
2022-12-11T13:22:21.513Z,22.77
2022-12-11T13:25:01.787Z,21.30
2022-12-11T13:27:40.134Z,23.65
2022-12-11T13:30:15.870Z,23.55
2022-12-11T13:32:50.004Z,21.17
2022-12-11T13:35:18.116Z,21.20
2022-12-11T13:37:46.722Z,20.97
2022-12-11T13:40:20.871Z,22.13
2022-12-11T13:42:55.287Z,21.42
2022-12-11T13:45:35.321Z,23.98
2022-12-11T13:48:02.223Z,21.95
2022-12-11T13:50:32.172Z,25.10
2022-12-11T13:53:00.832Z,23.58
2022-12-11T13:55:32.776Z,23.92
2022-12-11T13:58:00.136Z,24.23
2022-12-11T14:00:32.627Z,26.05
2022-12-11T14:03:04.749Z,23.90
2022-12-11T14:05:31.526Z,23.17
2022-12-11T14:08:03.007Z,22.48
2022-12-11T14:10:33.058Z,26.52
2022-12-11T14:12:59.741Z,26.02
2022-12-11T14:15:28.146Z,24.53
2022-12-11T14:17:55.818Z,24.52
2022-12-11T14:20:29.014Z,25.40
2022-12-11T14:23:17.877Z,26.92
2022-12-11T14:25:54.136Z,23.95
2022-12-11T14:28:21.526Z,22.23
2022-12-11T14:30:51.860Z,23.67
2022-12-11T14:33:23.003Z,23.15
2022-12-11T14:35:52.520Z,30.73
2022-12-11T14:38:21.584Z,27.25
2022-12-11T14:40:51.912Z,27.53
2022-12-11T14:43:45.806Z,27.35
2022-12-11T14:46:21.798Z,27.40
2022-12-11T14:49:00.456Z,28.08
2022-12-11T14:51:33.868Z,26.10
2022-12-11T14:54:00.945Z,20.50
2022-12-11T14:56:30.219Z,31.80
2022-12-11T14:59:00.684Z,26.40
2022-12-11T15:01:30.335Z,27.55
2022-12-11T15:04:24.579Z,26.75
2022-12-11T15:06:52.074Z,25.53
2022-12-11T15:09:25.471Z,26.05
2022-12-11T15:11:55.131Z,21.65
2022-12-11T15:14:23.837Z,24.60
2022-12-11T15:16:53.490Z,24.63
2022-12-11T15:19:29.172Z,24.93
2022-12-11T15:22:02.235Z,25.20
2022-12-11T15:24:36.406Z,26.58
2022-12-11T15:27:03.000Z,25.23
2022-12-11T15:29:36.794Z,26.17
2022-12-11T15:32:23.503Z,25.33
2022-12-11T15:34:56.359Z,21.63
2022-12-11T15:37:31.733Z,25.63
2022-12-11T15:40:01.468Z,25.40
2022-12-11T15:42:32.284Z,22.23
2022-12-11T15:44:59.833Z,26.03
2022-12-11T15:47:29.197Z,25.60
2022-12-11T15:50:26.045Z,24.70
2022-12-11T15:52:54.862Z,22.58
2022-12-11T15:55:23.199Z,25.10
2022-12-11T15:57:54.432Z,25.83
2022-12-11T16:00:21.753Z,26.83
2022-12-11T16:02:48.404Z,25.52
2022-12-11T16:05:15.480Z,22.88
2022-12-11T16:07:42.169Z,25.17
2022-12-11T16:10:14.284Z,25.13
2022-12-11T16:12:40.762Z,32.17
2022-12-11T16:15:07.748Z,22.65
2022-12-11T16:17:34.259Z,22.65
2022-12-11T16:20:00.737Z,24.50
2022-12-11T16:22:27.369Z,22.60
2022-12-11T16:24:55.014Z,24.58
2022-12-11T16:27:23.360Z,23.77
2022-12-11T16:29:50.787Z,22.70
2022-12-11T16:32:18.561Z,20.33
2022-12-11T16:34:45.228Z,25.07
2022-12-11T16:37:11.663Z,24.88
2022-12-11T16:39:38.588Z,22.63
2022-12-11T16:42:05.932Z,21.67
2022-12-11T16:44:33.655Z,24.50
2022-12-11T16:47:00.219Z,24.47
2022-12-11T16:49:26.820Z,23.23
2022-12-11T16:51:53.211Z,23.52
2022-12-11T16:54:19.596Z,24.88
2022-12-11T16:56:46.187Z,26.95
2022-12-11T16:59:12.987Z,39.60
2022-12-11T17:01:40.041Z,22.70
2022-12-11T17:04:06.994Z,26.85
2022-12-11T17:06:33.587Z,21.98
2022-12-11T17:09:00.568Z,24.85
2022-12-11T17:11:27.186Z,21.47
2022-12-11T17:13:56.375Z,20.30
2022-12-11T17:16:26.028Z,23.80
2022-12-11T17:18:53.353Z,20.45
2022-12-11T17:21:22.306Z,22.35
2022-12-11T17:23:49.425Z,19.77
2022-12-11T17:26:16.820Z,24.38
2022-12-11T17:28:43.611Z,18.88
2022-12-11T17:31:15.066Z,21.70
2022-12-11T17:33:41.669Z,23.02
2022-12-11T17:36:09.011Z,22.73
2022-12-11T17:38:35.775Z,21.55
2022-12-11T17:41:06.530Z,22.80
2022-12-11T17:43:33.297Z,20.23
2022-12-11T17:45:59.901Z,23.27
2022-12-11T17:48:26.445Z,24.90
2022-12-11T17:50:53.163Z,20.70
2022-12-11T17:53:21.445Z,19.30
2022-12-11T17:55:48.855Z,19.83
2022-12-11T17:58:17.780Z,22.92
2022-12-11T18:00:46.371Z,20.07
2022-12-11T18:03:13.335Z,21.33
2022-12-11T18:05:45.021Z,20.40
2022-12-11T18:08:24.549Z,19.58
2022-12-11T18:10:52.369Z,22.40
2022-12-11T18:13:19.294Z,18.43
2022-12-11T18:15:45.909Z,20.38
2022-12-11T18:18:12.525Z,19.05
2022-12-11T18:20:39.872Z,22.52
2022-12-11T18:23:06.820Z,20.48
2022-12-11T18:25:33.279Z,20.47
2022-12-11T18:28:00.350Z,22.25
2022-12-11T18:30:26.852Z,20.92
2022-12-11T18:32:53.336Z,16.92
2022-12-11T18:35:19.902Z,23.27
2022-12-11T18:37:46.310Z,18.73
2022-12-11T18:40:12.865Z,21.27
2022-12-11T18:42:39.364Z,21.05
2022-12-11T18:45:06.945Z,20.92
2022-12-11T18:47:34.014Z,19.70
2022-12-11T18:50:07.208Z,17.80
2022-12-11T18:52:34.725Z,16.83
2022-12-11T18:55:01.419Z,18.40
2022-12-11T18:57:27.939Z,16.48
2022-12-11T18:59:54.601Z,19.45
2022-12-11T19:02:21.952Z,16.93
2022-12-11T19:04:48.535Z,19.17
2022-12-11T19:07:15.358Z,15.30
2022-12-11T19:09:47.613Z,17.83
2022-12-11T19:12:14.703Z,17.17
2022-12-11T19:14:41.526Z,16.80
2022-12-11T19:17:07.988Z,14.70
2022-12-11T19:19:34.605Z,16.40
2022-12-11T19:22:01.075Z,19.10
2022-12-11T19:24:27.829Z,17.10
2022-12-11T19:26:54.405Z,17.87
2022-12-11T19:29:26.986Z,19.15
2022-12-11T19:31:55.826Z,16.83
2022-12-11T19:34:22.830Z,14.73
2022-12-11T19:36:50.293Z,14.95
2022-12-11T19:39:17.188Z,15.63
2022-12-11T19:41:43.794Z,16.13
2022-12-11T19:44:10.748Z,17.65
2022-12-11T19:46:38.104Z,19.05
2022-12-11T19:49:05.466Z,15.55
2022-12-11T19:51:38.662Z,16.30
2022-12-11T19:54:08.192Z,15.60
2022-12-11T19:56:36.076Z,17.42
2022-12-11T19:59:04.395Z,15.38
2022-12-11T20:01:32.345Z,18.65
2022-12-11T20:04:01.469Z,16.17
2022-12-11T20:06:29.515Z,14.98
2022-12-11T20:08:56.173Z,19.05
2022-12-11T20:11:22.839Z,18.65
2022-12-11T20:13:50.659Z,21.05
2022-12-11T20:16:25.093Z,17.97
2022-12-11T20:19:05.158Z,16.90
2022-12-11T20:21:31.666Z,16.52
2022-12-11T20:23:58.157Z,18.17
2022-12-11T20:26:25.487Z,15.70
2022-12-11T20:28:52.819Z,19.83
2022-12-11T20:31:22.833Z,20.63
2022-12-11T20:33:49.963Z,17.77
2022-12-11T20:36:18.568Z,17.85
2022-12-11T20:38:45.210Z,15.93
2022-12-11T20:41:14.107Z,17.83
2022-12-11T20:43:41.039Z,22.02
2022-12-11T20:46:09.781Z,21.08
2022-12-11T20:48:38.003Z,18.75
2022-12-11T20:51:07.108Z,19.10
2022-12-11T20:53:34.894Z,17.33
2022-12-11T20:56:01.880Z,18.77
2022-12-11T20:58:28.430Z,29.17
2022-12-11T21:00:55.037Z,22.50
2022-12-11T21:03:21.601Z,20.30
2022-12-11T21:05:48.031Z,20.27
2022-12-11T21:08:14.664Z,19.23
2022-12-11T21:10:43.487Z,17.33
2022-12-11T21:13:09.983Z,17.73
2022-12-11T21:15:37.257Z,19.60
2022-12-11T21:18:03.789Z,24.10
2022-12-11T21:20:30.432Z,18.27
2022-12-11T21:22:57.597Z,21.02
2022-12-11T21:25:25.272Z,19.30
2022-12-11T21:27:51.983Z,17.85
2022-12-11T21:30:18.967Z,15.70
2022-12-11T21:32:46.109Z,17.45
2022-12-11T21:35:12.919Z,20.83
2022-12-11T21:37:41.730Z,37.08
2022-12-11T21:40:09.310Z,24.88
2022-12-11T21:42:36.290Z,18.27
2022-12-11T21:47:50.128Z,20.02
2022-12-11T21:50:17.127Z,32.03
2022-12-11T21:52:43.675Z,22.92
2022-12-11T21:55:12.336Z,21.37
2022-12-11T21:57:39.084Z,20.67
2022-12-11T22:00:06.565Z,21.27
2022-12-11T22:02:37.485Z,19.65
2022-12-11T22:05:07.889Z,20.73
2022-12-11T22:07:34.432Z,18.10
2022-12-11T22:10:00.962Z,22.80
2022-12-11T22:12:28.446Z,20.33
2022-12-11T22:14:55.317Z,20.55
2022-12-11T22:17:22.161Z,19.58
2022-12-11T22:19:49.000Z,22.03
2022-12-11T22:22:15.545Z,17.92
2022-12-11T22:24:42.127Z,20.33
2022-12-11T22:27:08.661Z,17.38
2022-12-11T22:29:35.550Z,16.70
2022-12-11T22:32:02.078Z,19.17
2022-12-11T22:34:28.568Z,20.83
2022-12-11T22:36:56.243Z,20.88
2022-12-11T22:39:24.388Z,18.65
2022-12-11T22:41:50.953Z,19.15
2022-12-11T22:44:19.761Z,19.27
2022-12-11T22:46:50.018Z,20.80
2022-12-11T22:49:17.456Z,21.05
2022-12-11T22:51:44.026Z,16.25
2022-12-11T22:54:10.598Z,21.00
2022-12-11T22:56:37.121Z,20.83
2022-12-11T22:59:03.715Z,18.77
2022-12-11T23:01:30.250Z,17.13
2022-12-11T23:03:56.743Z,18.55
2022-12-11T23:06:24.956Z,16.25
2022-12-11T23:08:55.036Z,21.17
2022-12-11T23:11:25.203Z,18.27
2022-12-11T23:13:52.656Z,18.52
2022-12-11T23:16:19.635Z,18.73
2022-12-11T23:18:46.200Z,17.58
2022-12-11T23:21:13.168Z,18.03
2022-12-11T23:23:40.460Z,15.35
2022-12-11T23:26:08.608Z,19.27
2022-12-11T23:28:35.014Z,18.70
2022-12-11T23:31:01.939Z,20.90
2022-12-11T23:33:28.823Z,18.60
2022-12-11T23:35:55.524Z,19.85
2022-12-11T23:38:22.132Z,20.70
2022-12-11T23:40:48.584Z,19.52
2022-12-11T23:43:15.026Z,19.60
2022-12-11T23:45:44.712Z,20.03
2022-12-11T23:48:12.669Z,18.05
2022-12-11T23:50:40.764Z,20.27
2022-12-11T23:53:07.307Z,20.13
2022-12-11T23:55:34.071Z,21.00
2022-12-11T23:58:00.964Z,18.23
